sensor_id;sensor_type;location;lat;lon;timestamp;temperature;humidity
13354;DHT22;6746;50.892;4.064;2023-04-03T00:02:23;2.60;99.90
13354;DHT22;6746;50.892;4.064;2023-04-03T00:05:11;2.60;99.90
13354;DHT22;6746;50.892;4.064;2023-04-03T00:07:49;2.70;99.90
13354;DHT22;6746;50.892;4.064;2023-04-03T00:10:28;2.70;99.90
13354;DHT22;6746;50.892;4.064;2023-04-03T00:13:15;2.70;99.90
13354;DHT22;6746;50.892;4.064;2023-04-03T00:15:54;2.70;99.90
13354;DHT22;6746;50.892;4.064;2023-04-03T00:18:32;2.80;99.90
13354;DHT22;6746;50.892;4.064;2023-04-03T00:21:12;2.80;99.90
13354;DHT22;6746;50.892;4.064;2023-04-03T00:23:48;2.90;99.90
13354;DHT22;6746;50.892;4.064;2023-04-03T00:26:31;2.90;99.90
13354;DHT22;6746;50.892;4.064;2023-04-03T00:29:10;2.90;99.90
13354;DHT22;6746;50.892;4.064;2023-04-03T00:31:50;2.90;99.90
13354;DHT22;6746;50.892;4.064;2023-04-03T00:37:11;2.90;99.90
13354;DHT22;6746;50.892;4.064;2023-04-03T00:39:49;2.90;99.90
13354;DHT22;6746;50.892;4.064;2023-04-03T00:42:27;2.90;99.90
13354;DHT22;6746;50.892;4.064;2023-04-03T00:47:47;3.00;99.90
13354;DHT22;6746;50.892;4.064;2023-04-03T00:50:25;3.00;99.90
13354;DHT22;6746;50.892;4.064;2023-04-03T00:53:03;2.90;99.90
13354;DHT22;6746;50.892;4.064;2023-04-03T00:55:41;3.00;99.90
13354;DHT22;6746;50.892;4.064;2023-04-03T00:58:25;2.90;99.90
13354;DHT22;6746;50.892;4.064;2023-04-03T01:01:02;2.80;99.90
13354;DHT22;6746;50.892;4.064;2023-04-03T01:03:48;2.80;99.90
13354;DHT22;6746;50.892;4.064;2023-04-03T01:06:28;2.70;99.90
13354;DHT22;6746;50.892;4.064;2023-04-03T01:09:05;2.60;99.90
13354;DHT22;6746;50.892;4.064;2023-04-03T01:11:53;2.70;99.90
13354;DHT22;6746;50.892;4.064;2023-04-03T01:14:34;2.80;99.90
13354;DHT22;6746;50.892;4.064;2023-04-03T01:18:13;2.80;99.90
13354;DHT22;6746;50.892;4.064;2023-04-03T01:25:48;2.70;99.90
13354;DHT22;6746;50.892;4.064;2023-04-03T01:28:36;2.70;99.90
13354;DHT22;6746;50.892;4.064;2023-04-03T01:34:18;2.70;99.90
13354;DHT22;6746;50.892;4.064;2023-04-03T01:36:56;2.70;99.90
13354;DHT22;6746;50.892;4.064;2023-04-03T01:39:44;2.60;99.90
13354;DHT22;6746;50.892;4.064;2023-04-03T01:42:32;2.60;99.90
13354;DHT22;6746;50.892;4.064;2023-04-03T01:45:11;2.60;99.90
13354;DHT22;6746;50.892;4.064;2023-04-03T01:47:49;2.60;99.90
13354;DHT22;6746;50.892;4.064;2023-04-03T01:50:30;2.60;99.90
13354;DHT22;6746;50.892;4.064;2023-04-03T01:53:08;2.60;99.90
13354;DHT22;6746;50.892;4.064;2023-04-03T01:55:49;2.60;99.90
13354;DHT22;6746;50.892;4.064;2023-04-03T01:58:27;2.60;99.90
13354;DHT22;6746;50.892;4.064;2023-04-03T02:01:11;2.60;99.90
13354;DHT22;6746;50.892;4.064;2023-04-03T02:03:49;2.60;99.90
13354;DHT22;6746;50.892;4.064;2023-04-03T02:06:27;2.70;99.90
13354;DHT22;6746;50.892;4.064;2023-04-03T02:09:05;2.70;99.90
13354;DHT22;6746;50.892;4.064;2023-04-03T02:11:48;2.70;99.90
13354;DHT22;6746;50.892;4.064;2023-04-03T02:14:27;2.70;99.90
13354;DHT22;6746;50.892;4.064;2023-04-03T02:17:13;2.70;99.90
13354;DHT22;6746;50.892;4.064;2023-04-03T02:19:51;2.70;99.90
13354;DHT22;6746;50.892;4.064;2023-04-03T02:22:29;2.70;99.90
13354;DHT22;6746;50.892;4.064;2023-04-03T02:25:07;2.70;99.90
13354;DHT22;6746;50.892;4.064;2023-04-03T02:27:55;2.70;99.90
13354;DHT22;6746;50.892;4.064;2023-04-03T02:30:34;2.70;99.90
13354;DHT22;6746;50.892;4.064;2023-04-03T02:33:14;2.70;99.90
13354;DHT22;6746;50.892;4.064;2023-04-03T02:35:53;2.70;99.90
13354;DHT22;6746;50.892;4.064;2023-04-03T02:38:31;2.60;99.90
13354;DHT22;6746;50.892;4.064;2023-04-03T02:41:12;2.70;99.90
13354;DHT22;6746;50.892;4.064;2023-04-03T02:43:50;2.70;99.90
13354;DHT22;6746;50.892;4.064;2023-04-03T02:46:31;2.70;99.90
13354;DHT22;6746;50.892;4.064;2023-04-03T02:49:09;2.70;99.90
13354;DHT22;6746;50.892;4.064;2023-04-03T02:51:47;2.70;99.90
13354;DHT22;6746;50.892;4.064;2023-04-03T02:54:25;2.70;99.90
13354;DHT22;6746;50.892;4.064;2023-04-03T02:57:12;2.70;99.90
13354;DHT22;6746;50.892;4.064;2023-04-03T02:59:50;2.70;99.90
13354;DHT22;6746;50.892;4.064;2023-04-03T03:02:31;2.70;99.90
13354;DHT22;6746;50.892;4.064;2023-04-03T03:05:09;2.70;99.90
13354;DHT22;6746;50.892;4.064;2023-04-03T03:07:57;2.70;99.90
13354;DHT22;6746;50.892;4.064;2023-04-03T03:10:45;2.70;99.90
13354;DHT22;6746;50.892;4.064;2023-04-03T03:13:24;2.60;99.90
13354;DHT22;6746;50.892;4.064;2023-04-03T03:16:02;2.60;99.90
13354;DHT22;6746;50.892;4.064;2023-04-03T03:18:42;2.50;99.90
13354;DHT22;6746;50.892;4.064;2023-04-03T03:21:21;2.50;99.90
13354;DHT22;6746;50.892;4.064;2023-04-03T03:23:59;2.50;99.90
13354;DHT22;6746;50.892;4.064;2023-04-03T03:26:37;2.50;99.90
13354;DHT22;6746;50.892;4.064;2023-04-03T03:29:20;2.40;99.90
13354;DHT22;6746;50.892;4.064;2023-04-03T03:31:59;2.30;99.90
13354;DHT22;6746;50.892;4.064;2023-04-03T03:34:37;2.20;99.90
13354;DHT22;6746;50.892;4.064;2023-04-03T03:37:15;2.10;99.90
13354;DHT22;6746;50.892;4.064;2023-04-03T03:39:56;2.10;99.90
13354;DHT22;6746;50.892;4.064;2023-04-03T03:42:34;2.10;99.90
13354;DHT22;6746;50.892;4.064;2023-04-03T03:45:12;2.00;99.90
13354;DHT22;6746;50.892;4.064;2023-04-03T03:47:51;1.90;99.90
13354;DHT22;6746;50.892;4.064;2023-04-03T03:50:37;2.00;99.90
13354;DHT22;6746;50.892;4.064;2023-04-03T03:53:15;2.10;99.90
13354;DHT22;6746;50.892;4.064;2023-04-03T03:56:03;2.10;99.90
13354;DHT22;6746;50.892;4.064;2023-04-03T03:58:51;2.00;99.90
13354;DHT22;6746;50.892;4.064;2023-04-03T04:01:35;1.90;99.90
13354;DHT22;6746;50.892;4.064;2023-04-03T04:04:13;1.80;99.90
13354;DHT22;6746;50.892;4.064;2023-04-03T04:06:54;1.90;99.90
13354;DHT22;6746;50.892;4.064;2023-04-03T04:09:33;1.80;99.90
13354;DHT22;6746;50.892;4.064;2023-04-03T04:12:20;1.80;99.90
13354;DHT22;6746;50.892;4.064;2023-04-03T04:14:58;1.80;99.90
13354;DHT22;6746;50.892;4.064;2023-04-03T04:17:37;1.70;99.90
13354;DHT22;6746;50.892;4.064;2023-04-03T04:20:26;1.80;99.90
13354;DHT22;6746;50.892;4.064;2023-04-03T04:23:06;1.70;99.90
13354;DHT22;6746;50.892;4.064;2023-04-03T04:25:45;1.80;99.90
13354;DHT22;6746;50.892;4.064;2023-04-03T04:28:22;1.70;99.90
13354;DHT22;6746;50.892;4.064;2023-04-03T04:31:01;1.60;99.90
13354;DHT22;6746;50.892;4.064;2023-04-03T04:33:42;1.60;99.90
13354;DHT22;6746;50.892;4.064;2023-04-03T04:36:20;1.60;99.90
13354;DHT22;6746;50.892;4.064;2023-04-03T04:39:08;1.60;99.90
13354;DHT22;6746;50.892;4.064;2023-04-03T04:41:49;1.60;99.90
13354;DHT22;6746;50.892;4.064;2023-04-03T04:44:28;1.60;99.90
13354;DHT22;6746;50.892;4.064;2023-04-03T04:47:15;1.70;99.90
13354;DHT22;6746;50.892;4.064;2023-04-03T04:49:54;1.60;99.90
13354;DHT22;6746;50.892;4.064;2023-04-03T04:52:32;1.50;99.90
13354;DHT22;6746;50.892;4.064;2023-04-03T04:55:15;1.50;99.90
13354;DHT22;6746;50.892;4.064;2023-04-03T04:57:53;1.50;99.90
13354;DHT22;6746;50.892;4.064;2023-04-03T05:00:39;1.50;99.90
13354;DHT22;6746;50.892;4.064;2023-04-03T05:03:18;1.50;99.90
13354;DHT22;6746;50.892;4.064;2023-04-03T05:05:58;1.50;99.90
13354;DHT22;6746;50.892;4.064;2023-04-03T05:08:36;1.50;99.90
13354;DHT22;6746;50.892;4.064;2023-04-03T05:11:14;1.50;99.90
13354;DHT22;6746;50.892;4.064;2023-04-03T05:13:42;1.50;99.90
13354;DHT22;6746;50.892;4.064;2023-04-03T05:16:13;1.60;99.90
13354;DHT22;6746;50.892;4.064;2023-04-03T05:18:42;1.60;99.90
13354;DHT22;6746;50.892;4.064;2023-04-03T05:21:19;1.60;99.90
13354;DHT22;6746;50.892;4.064;2023-04-03T05:23:47;1.60;99.90
13354;DHT22;6746;50.892;4.064;2023-04-03T05:26:24;1.70;99.90
13354;DHT22;6746;50.892;4.064;2023-04-03T05:28:53;1.70;99.90
13354;DHT22;6746;50.892;4.064;2023-04-03T05:31:21;1.80;99.90
13354;DHT22;6746;50.892;4.064;2023-04-03T05:33:50;1.80;99.90
13354;DHT22;6746;50.892;4.064;2023-04-03T05:36:19;1.80;99.90
13354;DHT22;6746;50.892;4.064;2023-04-03T05:38:48;1.80;99.90
13354;DHT22;6746;50.892;4.064;2023-04-03T05:41:17;1.80;99.90
13354;DHT22;6746;50.892;4.064;2023-04-03T05:43:46;1.80;99.90
13354;DHT22;6746;50.892;4.064;2023-04-03T05:46:16;1.80;99.90
13354;DHT22;6746;50.892;4.064;2023-04-03T05:48:44;1.80;99.90
13354;DHT22;6746;50.892;4.064;2023-04-03T05:51:23;1.80;99.90
13354;DHT22;6746;50.892;4.064;2023-04-03T05:54:08;1.90;99.90
13354;DHT22;6746;50.892;4.064;2023-04-03T05:56:40;1.90;99.90
13354;DHT22;6746;50.892;4.064;2023-04-03T05:59:10;2.00;99.90
13354;DHT22;6746;50.892;4.064;2023-04-03T06:01:47;2.10;99.90
13354;DHT22;6746;50.892;4.064;2023-04-03T06:04:16;2.10;99.90
13354;DHT22;6746;50.892;4.064;2023-04-03T06:06:48;2.20;99.90
13354;DHT22;6746;50.892;4.064;2023-04-03T06:09:16;2.30;99.90
13354;DHT22;6746;50.892;4.064;2023-04-03T06:11:45;2.30;99.90
13354;DHT22;6746;50.892;4.064;2023-04-03T06:14:14;2.40;99.90
13354;DHT22;6746;50.892;4.064;2023-04-03T06:16:45;2.40;99.90
13354;DHT22;6746;50.892;4.064;2023-04-03T06:19:14;2.50;99.90
13354;DHT22;6746;50.892;4.064;2023-04-03T06:21:51;2.60;99.90
13354;DHT22;6746;50.892;4.064;2023-04-03T06:24:20;2.70;99.90
13354;DHT22;6746;50.892;4.064;2023-04-03T06:26:58;2.80;99.90
13354;DHT22;6746;50.892;4.064;2023-04-03T06:29:26;2.90;99.90
13354;DHT22;6746;50.892;4.064;2023-04-03T06:31:57;3.00;99.90
13354;DHT22;6746;50.892;4.064;2023-04-03T06:34:31;3.10;99.90
13354;DHT22;6746;50.892;4.064;2023-04-03T06:37:00;3.20;99.90
13354;DHT22;6746;50.892;4.064;2023-04-03T06:39:29;3.20;99.90
13354;DHT22;6746;50.892;4.064;2023-04-03T06:41:58;3.40;99.90
13354;DHT22;6746;50.892;4.064;2023-04-03T06:44:37;3.50;99.90
13354;DHT22;6746;50.892;4.064;2023-04-03T06:47:15;3.60;99.90
13354;DHT22;6746;50.892;4.064;2023-04-03T06:49:53;3.70;99.90
13354;DHT22;6746;50.892;4.064;2023-04-03T06:52:22;3.90;99.90
13354;DHT22;6746;50.892;4.064;2023-04-03T06:54:51;4.00;99.90
13354;DHT22;6746;50.892;4.064;2023-04-03T06:57:22;4.20;99.90
13354;DHT22;6746;50.892;4.064;2023-04-03T06:59:51;4.50;99.90
13354;DHT22;6746;50.892;4.064;2023-04-03T07:02:28;4.70;99.90
13354;DHT22;6746;50.892;4.064;2023-04-03T07:04:57;5.00;99.90
13354;DHT22;6746;50.892;4.064;2023-04-03T07:07:25;5.20;99.90
13354;DHT22;6746;50.892;4.064;2023-04-03T07:09:54;5.40;99.90
13354;DHT22;6746;50.892;4.064;2023-04-03T07:12:30;5.50;99.90
13354;DHT22;6746;50.892;4.064;2023-04-03T07:14:59;5.70;99.90
13354;DHT22;6746;50.892;4.064;2023-04-03T07:17:33;5.80;99.90
13354;DHT22;6746;50.892;4.064;2023-04-03T07:20:02;5.90;99.90
13354;DHT22;6746;50.892;4.064;2023-04-03T07:22:31;6.00;99.90
13354;DHT22;6746;50.892;4.064;2023-04-03T07:25:00;6.10;99.90
13354;DHT22;6746;50.892;4.064;2023-04-03T07:27:38;6.40;99.90
13354;DHT22;6746;50.892;4.064;2023-04-03T07:30:07;6.40;99.90
13354;DHT22;6746;50.892;4.064;2023-04-03T07:32:36;6.60;99.90
13354;DHT22;6746;50.892;4.064;2023-04-03T07:35:14;6.70;99.90
13354;DHT22;6746;50.892;4.064;2023-04-03T07:37:52;6.60;99.90
13354;DHT22;6746;50.892;4.064;2023-04-03T07:40:30;6.60;99.90
13354;DHT22;6746;50.892;4.064;2023-04-03T07:43:02;6.60;99.90
13354;DHT22;6746;50.892;4.064;2023-04-03T07:45:31;6.60;99.90
13354;DHT22;6746;50.892;4.064;2023-04-03T07:48:10;6.80;99.90
13354;DHT22;6746;50.892;4.064;2023-04-03T07:50:41;6.80;99.90
13354;DHT22;6746;50.892;4.064;2023-04-03T07:53:09;6.90;99.90
13354;DHT22;6746;50.892;4.064;2023-04-03T07:55:48;7.10;99.90
13354;DHT22;6746;50.892;4.064;2023-04-03T07:58:19;7.20;99.90
13354;DHT22;6746;50.892;4.064;2023-04-03T08:00:48;7.20;99.90
13354;DHT22;6746;50.892;4.064;2023-04-03T08:03:24;7.10;99.90
13354;DHT22;6746;50.892;4.064;2023-04-03T08:05:53;7.10;99.90
13354;DHT22;6746;50.892;4.064;2023-04-03T08:08:32;7.30;99.90
13354;DHT22;6746;50.892;4.064;2023-04-03T08:11:04;7.40;99.90
13354;DHT22;6746;50.892;4.064;2023-04-03T08:13:32;7.30;99.90
13354;DHT22;6746;50.892;4.064;2023-04-03T08:16:12;7.50;99.90
13354;DHT22;6746;50.892;4.064;2023-04-03T08:18:40;7.60;99.90
13354;DHT22;6746;50.892;4.064;2023-04-03T08:21:09;7.70;99.90
13354;DHT22;6746;50.892;4.064;2023-04-03T08:23:38;7.90;99.90
13354;DHT22;6746;50.892;4.064;2023-04-03T08:26:11;8.00;99.90
13354;DHT22;6746;50.892;4.064;2023-04-03T08:28:38;8.20;99.90
13354;DHT22;6746;50.892;4.064;2023-04-03T08:31:09;8.30;99.90
13354;DHT22;6746;50.892;4.064;2023-04-03T08:33:44;8.40;99.90
13354;DHT22;6746;50.892;4.064;2023-04-03T08:36:17;8.60;99.90
13354;DHT22;6746;50.892;4.064;2023-04-03T08:38:44;8.60;99.90
13354;DHT22;6746;50.892;4.064;2023-04-03T08:41:20;8.60;99.90
13354;DHT22;6746;50.892;4.064;2023-04-03T08:44:15;8.60;99.90
13354;DHT22;6746;50.892;4.064;2023-04-03T08:49:28;8.60;99.90
13354;DHT22;6746;50.892;4.064;2023-04-03T08:52:03;8.80;99.90
13354;DHT22;6746;50.892;4.064;2023-04-03T08:54:33;8.90;99.90
13354;DHT22;6746;50.892;4.064;2023-04-03T08:57:02;8.90;99.90
13354;DHT22;6746;50.892;4.064;2023-04-03T08:59:32;8.80;99.90
13354;DHT22;6746;50.892;4.064;2023-04-03T09:02:00;8.60;99.90
13354;DHT22;6746;50.892;4.064;2023-04-03T09:04:29;8.50;99.90
13354;DHT22;6746;50.892;4.064;2023-04-03T09:06:59;8.70;99.90
13354;DHT22;6746;50.892;4.064;2023-04-03T09:09:39;8.90;99.90
13354;DHT22;6746;50.892;4.064;2023-04-03T09:15:17;8.90;99.90
13354;DHT22;6746;50.892;4.064;2023-04-03T09:18:05;9.00;99.90
13354;DHT22;6746;50.892;4.064;2023-04-03T09:23:39;8.90;99.90
13354;DHT22;6746;50.892;4.064;2023-04-03T09:26:15;9.00;99.90
13354;DHT22;6746;50.892;4.064;2023-04-03T09:28:42;9.20;99.90
13354;DHT22;6746;50.892;4.064;2023-04-03T09:31:25;9.50;99.90
13354;DHT22;6746;50.892;4.064;2023-04-03T09:33:59;9.60;99.90
13354;DHT22;6746;50.892;4.064;2023-04-03T09:36:48;9.70;99.90
13354;DHT22;6746;50.892;4.064;2023-04-03T09:39:22;9.70;99.90
13354;DHT22;6746;50.892;4.064;2023-04-03T09:44:59;9.50;99.90
13354;DHT22;6746;50.892;4.064;2023-04-03T09:47:35;9.40;99.90
13354;DHT22;6746;50.892;4.064;2023-04-03T09:52:47;9.50;99.90
13354;DHT22;6746;50.892;4.064;2023-04-03T09:55:15;9.40;99.90
13354;DHT22;6746;50.892;4.064;2023-04-03T09:57:43;9.30;99.90
13354;DHT22;6746;50.892;4.064;2023-04-03T10:00:27;9.10;99.90
13354;DHT22;6746;50.892;4.064;2023-04-03T10:02:55;9.20;99.90
13354;DHT22;6746;50.892;4.064;2023-04-03T10:10:44;9.50;99.90
13354;DHT22;6746;50.892;4.064;2023-04-03T10:13:15;9.50;99.90
13354;DHT22;6746;50.892;4.064;2023-04-03T10:24:29;9.70;99.90
13354;DHT22;6746;50.892;4.064;2023-04-03T10:27:05;9.70;99.90
13354;DHT22;6746;50.892;4.064;2023-04-03T10:30:03;9.60;99.90
13354;DHT22;6746;50.892;4.064;2023-04-03T10:33:02;9.70;99.90
13354;DHT22;6746;50.892;4.064;2023-04-03T10:35:44;9.70;99.90
13354;DHT22;6746;50.892;4.064;2023-04-03T10:38:20;9.70;99.90
13354;DHT22;6746;50.892;4.064;2023-04-03T10:44:20;10.10;99.90
13354;DHT22;6746;50.892;4.064;2023-04-03T10:47:32;10.10;99.90
13354;DHT22;6746;50.892;4.064;2023-04-03T10:49:44;9.90;99.90
13354;DHT22;6746;50.892;4.064;2023-04-03T10:52:14;9.90;99.90
13354;DHT22;6746;50.892;4.064;2023-04-03T10:57:33;10.00;99.90
13354;DHT22;6746;50.892;4.064;2023-04-03T11:00:05;10.00;99.90
13354;DHT22;6746;50.892;4.064;2023-04-03T11:02:48;10.00;99.90
13354;DHT22;6746;50.892;4.064;2023-04-03T11:08:25;10.10;99.90
13354;DHT22;6746;50.892;4.064;2023-04-03T11:11:19;10.00;99.90
13354;DHT22;6746;50.892;4.064;2023-04-03T11:14:02;10.00;99.90
13354;DHT22;6746;50.892;4.064;2023-04-03T11:16:33;10.00;99.90
13354;DHT22;6746;50.892;4.064;2023-04-03T11:19:14;10.20;99.90
13354;DHT22;6746;50.892;4.064;2023-04-03T11:22:42;10.40;99.90
13354;DHT22;6746;50.892;4.064;2023-04-03T11:24:27;10.40;99.90
13354;DHT22;6746;50.892;4.064;2023-04-03T11:27:05;10.50;99.90
13354;DHT22;6746;50.892;4.064;2023-04-03T11:29:41;10.60;99.90
13354;DHT22;6746;50.892;4.064;2023-04-03T11:35:06;10.50;99.90
13354;DHT22;6746;50.892;4.064;2023-04-03T11:37:49;10.40;99.90
13354;DHT22;6746;50.892;4.064;2023-04-03T11:40:19;10.30;99.90
13354;DHT22;6746;50.892;4.064;2023-04-03T11:42:54;10.40;99.90
13354;DHT22;6746;50.892;4.064;2023-04-03T11:47:59;10.50;99.90
13354;DHT22;6746;50.892;4.064;2023-04-03T11:55:55;10.30;99.90
13354;DHT22;6746;50.892;4.064;2023-04-03T11:58:33;10.30;99.90
13354;DHT22;6746;50.892;4.064;2023-04-03T12:01:09;10.30;99.90
13354;DHT22;6746;50.892;4.064;2023-04-03T12:11:24;10.40;99.90
13354;DHT22;6746;50.892;4.064;2023-04-03T12:16:21;10.50;99.90
13354;DHT22;6746;50.892;4.064;2023-04-03T12:21:22;10.50;99.90
13354;DHT22;6746;50.892;4.064;2023-04-03T12:24:00;10.40;99.90
13354;DHT22;6746;50.892;4.064;2023-04-03T12:32:09;10.50;99.90
13354;DHT22;6746;50.892;4.064;2023-04-03T12:57:12;10.80;99.90
13354;DHT22;6746;50.892;4.064;2023-04-03T12:59:47;10.70;99.90
13354;DHT22;6746;50.892;4.064;2023-04-03T13:02:23;10.70;99.90
13354;DHT22;6746;50.892;4.064;2023-04-03T13:05:06;10.60;99.90
13354;DHT22;6746;50.892;4.064;2023-04-03T13:07:37;10.50;99.90
13354;DHT22;6746;50.892;4.064;2023-04-03T13:17:49;10.40;99.90
13354;DHT22;6746;50.892;4.064;2023-04-03T13:20:32;10.40;99.90
13354;DHT22;6746;50.892;4.064;2023-04-03T13:23:07;10.50;99.90
13354;DHT22;6746;50.892;4.064;2023-04-03T13:25:44;10.50;99.90
13354;DHT22;6746;50.892;4.064;2023-04-03T13:28:21;10.50;99.90
13354;DHT22;6746;50.892;4.064;2023-04-03T13:31:06;10.60;99.90
13354;DHT22;6746;50.892;4.064;2023-04-03T13:33:43;10.60;99.90
13354;DHT22;6746;50.892;4.064;2023-04-03T13:36:21;10.50;99.90
13354;DHT22;6746;50.892;4.064;2023-04-03T13:38:45;10.40;99.90
13354;DHT22;6746;50.892;4.064;2023-04-03T13:41:24;10.40;99.90
13354;DHT22;6746;50.892;4.064;2023-04-03T13:43:56;10.40;99.90
13354;DHT22;6746;50.892;4.064;2023-04-03T13:46:28;10.50;99.90
13354;DHT22;6746;50.892;4.064;2023-04-03T13:48:57;10.40;99.90
13354;DHT22;6746;50.892;4.064;2023-04-03T13:51:37;10.50;99.90
13354;DHT22;6746;50.892;4.064;2023-04-03T13:54:18;10.60;99.90
13354;DHT22;6746;50.892;4.064;2023-04-03T13:56:47;10.50;99.90
13354;DHT22;6746;50.892;4.064;2023-04-03T13:59:32;10.50;99.90
13354;DHT22;6746;50.892;4.064;2023-04-03T14:02:22;10.50;99.90
13354;DHT22;6746;50.892;4.064;2023-04-03T14:04:57;10.60;99.90
13354;DHT22;6746;50.892;4.064;2023-04-03T14:07:25;10.70;99.90
13354;DHT22;6746;50.892;4.064;2023-04-03T14:09:54;10.70;99.90
13354;DHT22;6746;50.892;4.064;2023-04-03T14:12:59;10.80;99.90
13354;DHT22;6746;50.892;4.064;2023-04-03T14:15:17;10.80;99.90
13354;DHT22;6746;50.892;4.064;2023-04-03T14:17:48;10.70;99.90
13354;DHT22;6746;50.892;4.064;2023-04-03T14:20:18;10.60;99.90
13354;DHT22;6746;50.892;4.064;2023-04-03T14:22:50;10.70;99.90
13354;DHT22;6746;50.892;4.064;2023-04-03T14:25:19;10.80;99.90
13354;DHT22;6746;50.892;4.064;2023-04-03T14:27:57;11.00;99.90
13354;DHT22;6746;50.892;4.064;2023-04-03T14:30:35;10.90;99.90
13354;DHT22;6746;50.892;4.064;2023-04-03T14:33:15;10.90;99.90
13354;DHT22;6746;50.892;4.064;2023-04-03T14:35:52;11.00;99.90
13354;DHT22;6746;50.892;4.064;2023-04-03T14:38:30;11.00;99.90
13354;DHT22;6746;50.892;4.064;2023-04-03T14:40:58;11.00;99.90
13354;DHT22;6746;50.892;4.064;2023-04-03T14:43:27;11.00;99.90
13354;DHT22;6746;50.892;4.064;2023-04-03T14:46:09;11.00;99.90
13354;DHT22;6746;50.892;4.064;2023-04-03T14:48:44;11.00;99.90
13354;DHT22;6746;50.892;4.064;2023-04-03T14:51:13;11.00;99.90
13354;DHT22;6746;50.892;4.064;2023-04-03T14:53:42;10.90;99.90
13354;DHT22;6746;50.892;4.064;2023-04-03T14:58:55;10.90;99.90
13354;DHT22;6746;50.892;4.064;2023-04-03T15:01:26;10.90;99.90
13354;DHT22;6746;50.892;4.064;2023-04-03T15:03:55;10.90;99.90
13354;DHT22;6746;50.892;4.064;2023-04-03T15:06:33;10.90;99.90
13354;DHT22;6746;50.892;4.064;2023-04-03T15:09:22;10.90;99.90
13354;DHT22;6746;50.892;4.064;2023-04-03T15:11:50;10.80;99.90
13354;DHT22;6746;50.892;4.064;2023-04-03T15:14:18;10.80;99.90
13354;DHT22;6746;50.892;4.064;2023-04-03T15:16:47;10.80;99.90
13354;DHT22;6746;50.892;4.064;2023-04-03T15:19:16;10.70;99.90
13354;DHT22;6746;50.892;4.064;2023-04-03T15:21:45;10.70;99.90
13354;DHT22;6746;50.892;4.064;2023-04-03T15:24:14;10.70;99.90
13354;DHT22;6746;50.892;4.064;2023-04-03T15:26:50;10.70;99.90
13354;DHT22;6746;50.892;4.064;2023-04-03T15:29:19;10.80;99.90
13354;DHT22;6746;50.892;4.064;2023-04-03T15:31:48;10.80;99.90
13354;DHT22;6746;50.892;4.064;2023-04-03T15:34:17;10.80;99.90
13354;DHT22;6746;50.892;4.064;2023-04-03T15:36:46;10.90;99.90
13354;DHT22;6746;50.892;4.064;2023-04-03T15:39:15;10.90;99.90
13354;DHT22;6746;50.892;4.064;2023-04-03T15:41:47;10.90;99.90
13354;DHT22;6746;50.892;4.064;2023-04-03T15:44:15;11.00;99.90
13354;DHT22;6746;50.892;4.064;2023-04-03T15:46:47;11.00;99.90
13354;DHT22;6746;50.892;4.064;2023-04-03T15:49:19;11.10;99.90
13354;DHT22;6746;50.892;4.064;2023-04-03T15:51:57;11.00;99.90
13354;DHT22;6746;50.892;4.064;2023-04-03T15:54:35;10.90;99.90
13354;DHT22;6746;50.892;4.064;2023-04-03T15:57:06;10.80;99.90
13354;DHT22;6746;50.892;4.064;2023-04-03T15:59:38;10.90;99.90
13354;DHT22;6746;50.892;4.064;2023-04-03T16:02:14;10.90;99.90
13354;DHT22;6746;50.892;4.064;2023-04-03T16:04:43;10.80;99.90
13354;DHT22;6746;50.892;4.064;2023-04-03T16:07:12;10.70;99.90
13354;DHT22;6746;50.892;4.064;2023-04-03T16:09:41;10.70;99.90
13354;DHT22;6746;50.892;4.064;2023-04-03T16:12:10;10.80;99.90
13354;DHT22;6746;50.892;4.064;2023-04-03T16:14:39;10.80;99.90
13354;DHT22;6746;50.892;4.064;2023-04-03T16:17:17;10.80;99.90
13354;DHT22;6746;50.892;4.064;2023-04-03T16:19:48;10.70;99.90
13354;DHT22;6746;50.892;4.064;2023-04-03T16:22:17;10.70;99.90
13354;DHT22;6746;50.892;4.064;2023-04-03T16:24:46;10.70;99.90
13354;DHT22;6746;50.892;4.064;2023-04-03T16:27:15;10.60;99.90
13354;DHT22;6746;50.892;4.064;2023-04-03T16:29:49;10.60;99.90
13354;DHT22;6746;50.892;4.064;2023-04-03T16:32:18;10.60;99.90
13354;DHT22;6746;50.892;4.064;2023-04-03T16:34:52;10.60;99.90
13354;DHT22;6746;50.892;4.064;2023-04-03T16:37:21;10.60;99.90
13354;DHT22;6746;50.892;4.064;2023-04-03T16:39:58;10.60;99.90
13354;DHT22;6746;50.892;4.064;2023-04-03T16:42:26;10.60;99.90
13354;DHT22;6746;50.892;4.064;2023-04-03T16:45:03;10.60;99.90
13354;DHT22;6746;50.892;4.064;2023-04-03T16:47:32;10.50;99.90
13354;DHT22;6746;50.892;4.064;2023-04-03T16:50:00;10.50;99.90
13354;DHT22;6746;50.892;4.064;2023-04-03T16:52:30;10.50;99.90
13354;DHT22;6746;50.892;4.064;2023-04-03T16:55:04;10.40;99.90
13354;DHT22;6746;50.892;4.064;2023-04-03T16:57:35;10.50;99.90
13354;DHT22;6746;50.892;4.064;2023-04-03T17:00:12;10.40;99.90
13354;DHT22;6746;50.892;4.064;2023-04-03T17:02:40;10.40;99.90
13354;DHT22;6746;50.892;4.064;2023-04-03T17:05:09;10.40;99.90
13354;DHT22;6746;50.892;4.064;2023-04-03T17:07:38;10.30;99.90
13354;DHT22;6746;50.892;4.064;2023-04-03T17:10:15;10.30;99.90
13354;DHT22;6746;50.892;4.064;2023-04-03T17:12:44;10.30;99.90
13354;DHT22;6746;50.892;4.064;2023-04-03T17:15:22;10.20;99.90
13354;DHT22;6746;50.892;4.064;2023-04-03T17:17:51;10.20;99.90
13354;DHT22;6746;50.892;4.064;2023-04-03T17:20:19;10.20;99.90
13354;DHT22;6746;50.892;4.064;2023-04-03T17:22:51;10.10;99.90
13354;DHT22;6746;50.892;4.064;2023-04-03T17:25:20;10.10;99.90
13354;DHT22;6746;50.892;4.064;2023-04-03T17:27:49;10.00;99.90
13354;DHT22;6746;50.892;4.064;2023-04-03T17:30:20;10.00;99.90
13354;DHT22;6746;50.892;4.064;2023-04-03T17:32:52;9.90;99.90
13354;DHT22;6746;50.892;4.064;2023-04-03T17:35:23;9.90;99.90
13354;DHT22;6746;50.892;4.064;2023-04-03T17:38:01;9.90;99.90
13354;DHT22;6746;50.892;4.064;2023-04-03T17:40:33;9.80;99.90
13354;DHT22;6746;50.892;4.064;2023-04-03T17:43:01;9.70;99.90
13354;DHT22;6746;50.892;4.064;2023-04-03T17:45:40;9.70;99.90
13354;DHT22;6746;50.892;4.064;2023-04-03T17:48:12;9.60;99.90
13354;DHT22;6746;50.892;4.064;2023-04-03T17:50:41;9.60;99.90
13354;DHT22;6746;50.892;4.064;2023-04-03T17:53:12;9.40;99.90
13354;DHT22;6746;50.892;4.064;2023-04-03T17:55:41;9.30;99.90
13354;DHT22;6746;50.892;4.064;2023-04-03T17:58:10;9.30;99.90
13354;DHT22;6746;50.892;4.064;2023-04-03T18:00:39;9.20;99.90
13354;DHT22;6746;50.892;4.064;2023-04-03T18:03:11;9.10;99.90
13354;DHT22;6746;50.892;4.064;2023-04-03T18:05:40;9.10;99.90
13354;DHT22;6746;50.892;4.064;2023-04-03T18:08:09;9.00;99.90
13354;DHT22;6746;50.892;4.064;2023-04-03T18:10:39;8.90;99.90
13354;DHT22;6746;50.892;4.064;2023-04-03T18:13:16;8.90;99.90
13354;DHT22;6746;50.892;4.064;2023-04-03T18:16:08;8.80;99.90
13354;DHT22;6746;50.892;4.064;2023-04-03T18:18:46;8.70;99.90
13354;DHT22;6746;50.892;4.064;2023-04-03T18:21:24;8.60;99.90
13354;DHT22;6746;50.892;4.064;2023-04-03T18:24:03;8.60;99.90
13354;DHT22;6746;50.892;4.064;2023-04-03T18:26:33;8.50;99.90
13354;DHT22;6746;50.892;4.064;2023-04-03T18:29:03;8.50;99.90
13354;DHT22;6746;50.892;4.064;2023-04-03T18:31:41;8.40;99.90
13354;DHT22;6746;50.892;4.064;2023-04-03T18:34:17;8.30;99.90
13354;DHT22;6746;50.892;4.064;2023-04-03T18:36:46;8.20;99.90
13354;DHT22;6746;50.892;4.064;2023-04-03T18:39:24;8.20;99.90
13354;DHT22;6746;50.892;4.064;2023-04-03T18:42:07;8.20;99.90
13354;DHT22;6746;50.892;4.064;2023-04-03T18:45:01;8.10;99.90